Time;durP1;ratioP1;P1;durP2;ratioP2;P2;SDS_P1;SDS_P2;PMS_P1;PMS_P2;Temp;Humidity;BMP_temperature;BMP_pressure;BME280_temperature;BME280_humidity;BME280_pressure;Samples;Min_cycle;Max_cycle;Signal;HPM_P1;HPM_P2
2023/12/06 00:01:44;;;;;;;39.43;24.50;;;;;;;;;;6279185;22;20162;-52
2023/12/06 00:04:10;;;;;;;41.50;23.63;;;;;;;;;;6278360;22;20163;-53
2023/12/06 00:06:36;;;;;;;39.00;24.07;;;;;;;;;;6279160;22;20157;-52
2023/12/06 00:09:02;;;;;;;43.43;25.50;;;;;;;;;;6278055;22;20430;-54
2023/12/06 00:11:28;;;;;;;44.57;24.93;;;;;;;;;;6278958;22;20142;-54
2023/12/06 00:13:54;;;;;;;39.07;23.70;;;;;;;;;;6277557;22;20200;-55
2023/12/06 00:16:22;;;;;;;38.80;24.47;;;;;;;;;;6278254;22;20174;-55
2023/12/06 00:18:50;;;;;;;42.43;24.13;;;;;;;;;;6278417;22;20151;-55
2023/12/06 00:21:17;;;;;;;39.50;23.47;;;;;;;;;;6306119;22;20143;-54
2023/12/06 00:23:43;;;;;;;39.90;23.17;;;;;;;;;;6279731;22;20171;-54
2023/12/06 00:26:09;;;;;;;36.30;22.47;;;;;;;;;;6280381;22;20222;-53
2023/12/06 00:28:37;;;;;;;37.93;23.93;;;;;;;;;;6280378;22;20144;-55
2023/12/06 00:31:03;;;;;;;40.23;23.73;;;;;;;;;;6281038;22;20180;-54
2023/12/06 00:33:30;;;;;;;36.90;23.60;;;;;;;;;;6306984;22;20128;-52
2023/12/06 00:35:57;;;;;;;37.47;22.10;;;;;;;;;;6275347;22;20278;-52
2023/12/06 00:38:23;;;;;;;38.03;23.03;;;;;;;;;;6276663;22;20136;-55
2023/12/06 00:40:49;;;;;;;37.57;22.73;;;;;;;;;;6275685;22;20136;-53
2023/12/06 00:43:15;;;;;;;39.40;21.80;;;;;;;;;;6276304;22;20554;-52
2023/12/06 00:45:41;;;;;;;39.23;23.50;;;;;;;;;;6275701;22;20168;-53
2023/12/06 00:48:08;;;;;;;34.67;21.67;;;;;;;;;;6277680;22;20135;-52
2023/12/06 00:50:34;;;;;;;36.20;22.30;;;;;;;;;;6276426;22;20144;-53
2023/12/06 00:53:00;;;;;;;42.20;24.33;;;;;;;;;;6276980;22;20137;-52
2023/12/06 00:55:27;;;;;;;35.60;22.20;;;;;;;;;;6277423;22;20148;-50
2023/12/06 00:57:53;;;;;;;38.73;23.43;;;;;;;;;;6276269;22;20141;-53
2023/12/06 01:00:22;;;;;;;40.17;22.53;;;;;;;;;;6276030;22;20411;-57
2023/12/06 01:02:48;;;;;;;39.23;22.83;;;;;;;;;;6276533;22;20188;-53
2023/12/06 01:05:14;;;;;;;39.90;23.20;;;;;;;;;;6276209;22;20160;-53
2023/12/06 01:07:40;;;;;;;41.57;23.37;;;;;;;;;;6276649;22;20132;-55
2023/12/06 01:10:06;;;;;;;40.43;23.13;;;;;;;;;;6276506;22;20451;-53
2023/12/06 01:12:32;;;;;;;39.27;24.03;;;;;;;;;;6276242;22;20215;-54
2023/12/06 01:14:59;;;;;;;39.30;22.70;;;;;;;;;;6275795;22;20137;-56
2023/12/06 01:17:24;;;;;;;44.70;23.57;;;;;;;;;;6275540;22;20156;-53
2023/12/06 01:19:50;;;;;;;40.03;24.30;;;;;;;;;;6275567;22;20158;-53
2023/12/06 01:22:16;;;;;;;42.50;24.80;;;;;;;;;;6276375;22;20128;-53
2023/12/06 01:24:42;;;;;;;44.90;25.50;;;;;;;;;;6276430;22;20255;-51
2023/12/06 01:27:15;;;;;;;38.47;23.70;;;;;;;;;;6275663;22;20144;-51
2023/12/06 01:29:42;;;;;;;44.80;24.43;;;;;;;;;;6276485;22;20163;-51
2023/12/06 01:32:08;;;;;;;41.30;25.33;;;;;;;;;;6276894;22;20249;-56
2023/12/06 01:34:35;;;;;;;45.30;26.07;;;;;;;;;;6276549;22;20147;-54
2023/12/06 01:37:01;;;;;;;45.10;26.27;;;;;;;;;;6276189;22;20459;-50
2023/12/06 01:39:27;;;;;;;45.30;25.60;;;;;;;;;;6276754;22;20209;-51
2023/12/06 01:41:54;;;;;;;43.53;25.27;;;;;;;;;;6276660;22;20172;-54
2023/12/06 01:44:20;;;;;;;43.83;25.87;;;;;;;;;;6275438;22;20178;-49
2023/12/06 01:46:46;;;;;;;44.27;25.27;;;;;;;;;;6272818;22;20158;-54
2023/12/06 01:49:13;;;;;;;47.83;26.20;;;;;;;;;;6272533;22;20186;-52
2023/12/06 01:51:40;;;;;;;46.10;26.93;;;;;;;;;;6271859;22;20150;-51
2023/12/06 01:54:08;;;;;;;47.60;26.83;;;;;;;;;;6271749;22;20155;-51
2023/12/06 01:56:34;;;;;;;43.50;25.67;;;;;;;;;;6271994;22;20144;-50
2023/12/06 01:59:00;;;;;;;47.27;27.30;;;;;;;;;;6271819;22;20230;-53
2023/12/06 02:01:26;;;;;;;45.93;26.00;;;;;;;;;;6269398;22;20526;-49
2023/12/06 02:03:52;;;;;;;47.07;26.70;;;;;;;;;;6268528;22;20430;-53
2023/12/06 02:06:18;;;;;;;46.77;26.53;;;;;;;;;;6269998;22;20227;-50
2023/12/06 02:08:44;;;;;;;48.80;26.90;;;;;;;;;;6271333;22;20124;-51
2023/12/06 02:11:10;;;;;;;46.77;26.77;;;;;;;;;;6268756;22;20140;-50
2023/12/06 02:13:37;;;;;;;48.60;27.47;;;;;;;;;;6269609;22;20148;-51
2023/12/06 02:16:03;;;;;;;44.77;26.93;;;;;;;;;;6273048;22;20259;-55
2023/12/06 02:18:31;;;;;;;45.10;26.03;;;;;;;;;;6274664;22;20180;-52
2023/12/06 02:20:57;;;;;;;49.73;27.80;;;;;;;;;;6276011;22;20174;-51
2023/12/06 02:23:25;;;;;;;49.20;27.60;;;;;;;;;;6276130;22;20135;-54
2023/12/06 02:25:51;;;;;;;44.30;25.53;;;;;;;;;;6275886;22;20199;-52
2023/12/06 02:28:27;;;;;;;49.97;27.50;;;;;;;;;;6276255;22;20505;-49
2023/12/06 02:30:53;;;;;;;46.10;27.60;;;;;;;;;;6275697;22;20156;-51
2023/12/06 02:33:19;;;;;;;43.73;25.50;;;;;;;;;;6275399;22;20141;-53
2023/12/06 02:35:51;;;;;;;45.73;25.43;;;;;;;;;;6284572;22;20183;-54
2023/12/06 02:38:19;;;;;;;45.00;25.30;;;;;;;;;;6280407;22;20174;-51
2023/12/06 02:40:46;;;;;;;47.17;25.83;;;;;;;;;;6306086;22;20157;-53
2023/12/06 02:43:13;;;;;;;45.43;26.73;;;;;;;;;;6277846;22;20148;-52
2023/12/06 02:45:39;;;;;;;43.07;25.20;;;;;;;;;;6278746;22;20167;-50
2023/12/06 02:48:05;;;;;;;46.07;26.83;;;;;;;;;;6306411;22;20134;-53
2023/12/06 02:50:32;;;;;;;39.73;25.00;;;;;;;;;;6280336;22;20173;-51
2023/12/06 02:52:58;;;;;;;40.87;25.10;;;;;;;;;;6280119;22;20150;-52
2023/12/06 02:55:24;;;;;;;43.43;24.77;;;;;;;;;;6280314;22;20226;-51
2023/12/06 02:57:50;;;;;;;45.37;26.07;;;;;;;;;;6280379;22;20486;-56
2023/12/06 03:00:16;;;;;;;44.03;26.57;;;;;;;;;;6280918;22;20143;-56
2023/12/06 03:02:42;;;;;;;49.43;26.20;;;;;;;;;;6279956;22;20160;-53
2023/12/06 03:05:09;;;;;;;39.80;24.70;;;;;;;;;;6306481;22;20212;-52
2023/12/06 03:07:35;;;;;;;41.83;25.50;;;;;;;;;;6279038;22;20136;-51
2023/12/06 03:10:01;;;;;;;43.37;26.37;;;;;;;;;;6304221;22;20124;-54
2023/12/06 03:12:27;;;;;;;42.77;25.10;;;;;;;;;;6279741;22;20166;-51
2023/12/06 03:15:01;;;;;;;42.10;25.17;;;;;;;;;;6280448;22;20174;-51
2023/12/06 03:17:28;;;;;;;41.13;25.30;;;;;;;;;;6280586;22;20559;-53
2023/12/06 03:19:54;;;;;;;47.37;26.67;;;;;;;;;;6280182;22;20140;-50
2023/12/06 03:22:20;;;;;;;46.70;27.47;;;;;;;;;;6282411;22;20236;-55
2023/12/06 03:24:47;;;;;;;41.87;25.37;;;;;;;;;;6282541;22;20280;-54
2023/12/06 03:27:13;;;;;;;42.73;25.53;;;;;;;;;;6283988;22;20146;-55
2023/12/06 03:29:39;;;;;;;40.53;25.00;;;;;;;;;;6309511;22;20134;-55
2023/12/06 03:32:05;;;;;;;44.53;26.10;;;;;;;;;;6283466;22;20152;-55
2023/12/06 03:34:31;;;;;;;44.87;26.90;;;;;;;;;;6309116;22;20226;-50
2023/12/06 03:36:58;;;;;;;45.57;26.40;;;;;;;;;;6308977;22;20182;-53
2023/12/06 03:39:26;;;;;;;43.87;26.27;;;;;;;;;;6309692;22;20147;-51
2023/12/06 03:41:52;;;;;;;47.33;26.97;;;;;;;;;;6282700;22;20521;-53
2023/12/06 03:44:19;;;;;;;44.37;26.70;;;;;;;;;;6283244;22;20163;-53
2023/12/06 03:46:45;;;;;;;44.93;26.30;;;;;;;;;;6283793;22;20152;-52
2023/12/06 03:49:11;;;;;;;46.67;27.80;;;;;;;;;;6284064;22;20166;-53
2023/12/06 03:51:37;;;;;;;46.60;26.83;;;;;;;;;;6283634;22;20428;-56
2023/12/06 03:54:05;;;;;;;46.83;28.20;;;;;;;;;;6283417;22;20476;-54
2023/12/06 03:59:33;;;;;;;47.70;26.70;;;;;;;;;;6309606;22;20466;-54
2023/12/06 04:01:59;;;;;;;45.50;27.03;;;;;;;;;;6308640;22;20144;-54
2023/12/06 04:04:25;;;;;;;49.53;27.93;;;;;;;;;;6308534;22;20589;-53
2023/12/06 04:06:50;;;;;;;42.33;26.60;;;;;;;;;;6282029;22;20198;-55
2023/12/06 04:09:16;;;;;;;46.00;26.63;;;;;;;;;;6282033;22;20140;-52
2023/12/06 04:11:42;;;;;;;45.13;27.63;;;;;;;;;;6282738;22;20132;-55
2023/12/06 04:14:09;;;;;;;45.27;27.33;;;;;;;;;;6282573;22;20549;-56
2023/12/06 04:16:36;;;;;;;46.13;27.03;;;;;;;;;;6281528;22;20152;-55
2023/12/06 04:19:03;;;;;;;46.00;27.20;;;;;;;;;;6282729;22;20221;-56
2023/12/06 04:21:29;;;;;;;45.87;26.67;;;;;;;;;;6282578;22;20536;-52
2023/12/06 04:23:55;;;;;;;48.97;28.30;;;;;;;;;;6281560;22;20135;-54
2023/12/06 04:26:21;;;;;;;50.43;27.77;;;;;;;;;;6282472;22;20211;-54
2023/12/06 04:28:48;;;;;;;48.03;29.03;;;;;;;;;;6282011;22;20424;-56
2023/12/06 04:31:14;;;;;;;46.07;27.50;;;;;;;;;;6308324;22;20437;-55
2023/12/06 04:33:40;;;;;;;47.90;27.63;;;;;;;;;;6283042;22;20185;-54
2023/12/06 04:36:06;;;;;;;50.77;27.93;;;;;;;;;;6275472;22;20196;-55
2023/12/06 04:38:32;;;;;;;49.23;27.10;;;;;;;;;;6277916;22;20159;-56
2023/12/06 04:40:59;;;;;;;44.93;27.07;;;;;;;;;;6277959;22;20128;-55
2023/12/06 04:43:31;;;;;;;50.13;29.00;;;;;;;;;;6277259;22;20473;-56
2023/12/06 04:45:57;;;;;;;51.73;28.07;;;;;;;;;;6277408;22;20184;-55
2023/12/06 04:48:23;;;;;;;51.63;27.63;;;;;;;;;;6277304;22;20190;-51
2023/12/06 04:50:49;;;;;;;45.10;27.40;;;;;;;;;;6276454;22;20431;-50
2023/12/06 04:53:15;;;;;;;53.10;28.10;;;;;;;;;;6277052;22;20144;-53
2023/12/06 04:55:41;;;;;;;54.63;28.70;;;;;;;;;;6277052;22;20585;-55
2023/12/06 04:58:08;;;;;;;50.20;28.80;;;;;;;;;;6275911;22;20475;-52
2023/12/06 05:00:34;;;;;;;49.27;29.40;;;;;;;;;;6275341;22;20144;-54
2023/12/06 05:03:00;;;;;;;48.30;28.53;;;;;;;;;;6275673;22;20496;-52
2023/12/06 05:05:26;;;;;;;47.30;28.47;;;;;;;;;;6275864;22;20289;-52
2023/12/06 05:07:52;;;;;;;50.83;29.37;;;;;;;;;;6275117;22;20679;-54
2023/12/06 05:10:19;;;;;;;54.00;29.73;;;;;;;;;;6271853;22;20473;-51
2023/12/06 05:12:45;;;;;;;52.87;29.00;;;;;;;;;;6268324;22;20370;-50
2023/12/06 05:15:11;;;;;;;48.73;27.93;;;;;;;;;;6272122;22;20136;-54
2023/12/06 05:17:37;;;;;;;52.13;30.70;;;;;;;;;;6273557;22;20222;-54
2023/12/06 05:20:04;;;;;;;52.60;30.37;;;;;;;;;;6274395;22;20510;-51
2023/12/06 05:22:30;;;;;;;53.97;30.23;;;;;;;;;;6273300;22;20489;-55
2023/12/06 05:24:56;;;;;;;57.77;31.13;;;;;;;;;;6274490;22;20176;-53
2023/12/06 05:27:22;;;;;;;56.93;30.30;;;;;;;;;;6275878;22;20193;-53
2023/12/06 05:29:49;;;;;;;56.10;30.27;;;;;;;;;;6273839;22;20707;-52
2023/12/06 05:32:16;;;;;;;56.27;30.90;;;;;;;;;;6275128;22;20144;-55
2023/12/06 05:34:42;;;;;;;52.47;31.53;;;;;;;;;;6273860;22;20210;-52
2023/12/06 05:37:09;;;;;;;56.63;31.77;;;;;;;;;;6301695;22;20183;-54
2023/12/06 05:39:36;;;;;;;55.80;31.17;;;;;;;;;;6278268;22;20170;-52
2023/12/06 05:42:03;;;;;;;59.10;32.27;;;;;;;;;;6279740;22;20151;-55
2023/12/06 05:44:30;;;;;;;55.13;30.73;;;;;;;;;;6280109;22;20178;-51
2023/12/06 05:46:56;;;;;;;53.73;30.00;;;;;;;;;;6306986;22;20155;-54
2023/12/06 05:49:23;;;;;;;57.27;32.10;;;;;;;;;;6279604;22;20196;-52
2023/12/06 05:51:49;;;;;;;56.33;31.20;;;;;;;;;;6280351;22;20143;-55
2023/12/06 05:54:15;;;;;;;61.83;32.10;;;;;;;;;;6305846;22;20446;-50
2023/12/06 05:56:42;;;;;;;63.97;33.20;;;;;;;;;;6306126;22;20124;-54
2023/12/06 05:59:08;;;;;;;60.43;33.07;;;;;;;;;;6280548;22;20136;-55
2023/12/06 06:01:34;;;;;;;65.53;33.23;;;;;;;;;;6280043;22;20161;-54
2023/12/06 06:04:00;;;;;;;58.50;32.50;;;;;;;;;;6306021;22;20128;-52
2023/12/06 06:06:28;;;;;;;57.57;30.80;;;;;;;;;;6306120;22;20142;-50
2023/12/06 06:08:54;;;;;;;62.17;32.40;;;;;;;;;;6280159;22;20155;-54
2023/12/06 06:11:20;;;;;;;62.10;32.30;;;;;;;;;;6280141;22;20136;-55
2023/12/06 06:13:47;;;;;;;64.97;32.57;;;;;;;;;;6306968;22;20531;-54
2023/12/06 06:16:17;;;;;;;58.70;32.63;;;;;;;;;;6276100;22;20245;-51
2023/12/06 06:18:43;;;;;;;54.97;30.97;;;;;;;;;;6273137;22;20158;-53
2023/12/06 06:21:09;;;;;;;62.23;33.63;;;;;;;;;;6272181;22;20271;-51
2023/12/06 06:23:35;;;;;;;56.53;30.90;;;;;;;;;;6298954;22;20175;-52
2023/12/06 06:26:01;;;;;;;66.73;34.57;;;;;;;;;;6272260;22;20174;-54
2023/12/06 06:28:27;;;;;;;62.13;33.07;;;;;;;;;;6270259;22;20404;-53
2023/12/06 06:30:53;;;;;;;64.43;33.17;;;;;;;;;;6269229;22;20298;-52
2023/12/06 06:33:19;;;;;;;61.57;32.87;;;;;;;;;;6267416;22;20713;-50
2023/12/06 06:35:46;;;;;;;64.93;33.40;;;;;;;;;;6262131;22;20230;-51
2023/12/06 06:38:12;;;;;;;61.30;32.53;;;;;;;;;;6263784;22;20355;-51
2023/12/06 06:40:38;;;;;;;64.13;33.27;;;;;;;;;;6265598;22;20292;-54
2023/12/06 06:43:06;;;;;;;67.30;33.40;;;;;;;;;;6265899;22;20139;-52
2023/12/06 06:45:32;;;;;;;68.20;32.50;;;;;;;;;;6266403;22;20199;-51
2023/12/06 06:47:58;;;;;;;63.43;33.13;;;;;;;;;;6267522;22;20150;-56
2023/12/06 06:50:25;;;;;;;69.70;35.43;;;;;;;;;;6266937;22;20208;-53
2023/12/06 06:52:52;;;;;;;70.50;35.40;;;;;;;;;;6266664;22;20211;-53
2023/12/06 06:55:17;;;;;;;71.60;35.97;;;;;;;;;;6263347;22;20128;-51
2023/12/06 06:57:43;;;;;;;74.97;36.20;;;;;;;;;;6260380;22;20209;-51
2023/12/06 07:00:10;;;;;;;65.73;34.13;;;;;;;;;;6262828;22;20289;-54
2023/12/06 07:02:38;;;;;;;66.30;33.90;;;;;;;;;;6264876;22;20148;-54
2023/12/06 07:05:06;;;;;;;69.07;35.93;;;;;;;;;;6265441;22;20289;-53
2023/12/06 07:07:32;;;;;;;68.63;35.27;;;;;;;;;;6263870;22;20140;-51
2023/12/06 07:09:58;;;;;;;60.57;33.83;;;;;;;;;;6264791;22;20160;-53
2023/12/06 07:12:24;;;;;;;67.93;34.83;;;;;;;;;;6265310;22;20168;-52
2023/12/06 07:14:51;;;;;;;66.40;34.47;;;;;;;;;;6262165;22;20152;-54
2023/12/06 07:17:17;;;;;;;64.07;33.77;;;;;;;;;;6270902;22;20153;-52
2023/12/06 07:19:43;;;;;;;73.90;35.20;;;;;;;;;;6267848;22;20141;-52
2023/12/06 07:22:09;;;;;;;76.30;36.30;;;;;;;;;;6269999;22;20138;-52
2023/12/06 07:24:35;;;;;;;76.60;36.17;;;;;;;;;;6269804;22;20156;-49
2023/12/06 07:27:01;;;;;;;71.10;35.57;;;;;;;;;;6271604;22;20124;-54
2023/12/06 07:29:27;;;;;;;74.67;36.63;;;;;;;;;;6273008;22;20202;-54
2023/12/06 07:31:54;;;;;;;75.43;37.17;;;;;;;;;;6270740;22;20238;-52
2023/12/06 07:34:21;;;;;;;70.30;37.97;;;;;;;;;;6269899;22;20155;-51
2023/12/06 07:36:47;;;;;;;72.17;35.43;;;;;;;;;;6268598;22;20226;-51
2023/12/06 07:39:16;;;;;;;83.10;39.83;;;;;;;;;;6271550;22;20608;-55
2023/12/06 07:41:42;;;;;;;74.03;36.50;;;;;;;;;;6272492;22;20144;-49
2023/12/06 07:44:09;;;;;;;77.27;35.37;;;;;;;;;;6269453;22;20457;-53
2023/12/06 07:46:35;;;;;;;75.80;37.43;;;;;;;;;;6264503;22;20163;-51
2023/12/06 07:49:02;;;;;;;71.57;36.20;;;;;;;;;;6260203;22;20189;-54
2023/12/06 07:51:28;;;;;;;77.67;36.43;;;;;;;;;;6262110;22;20182;-51
2023/12/06 07:53:56;;;;;;;73.20;36.70;;;;;;;;;;6260789;22;20137;-50
2023/12/06 07:56:23;;;;;;;72.97;37.13;;;;;;;;;;6261446;22;20257;-52
2023/12/06 07:58:51;;;;;;;73.57;36.67;;;;;;;;;;6260905;22;20412;-54
2023/12/06 08:01:17;;;;;;;75.40;38.77;;;;;;;;;;6263026;22;20159;-53
2023/12/06 08:03:44;;;;;;;81.30;38.73;;;;;;;;;;6263150;22;20351;-52
2023/12/06 08:06:12;;;;;;;74.43;37.57;;;;;;;;;;6262974;22;20178;-53
2023/12/06 08:08:39;;;;;;;73.77;37.73;;;;;;;;;;6262279;22;20137;-51
2023/12/06 08:11:05;;;;;;;83.97;38.57;;;;;;;;;;6261644;22;20219;-54
2023/12/06 08:13:31;;;;;;;78.67;38.33;;;;;;;;;;6263110;22;20217;-54
2023/12/06 08:15:58;;;;;;;76.00;39.30;;;;;;;;;;6266991;22;20148;-53
2023/12/06 08:18:24;;;;;;;75.23;37.90;;;;;;;;;;6270979;22;20140;-56
2023/12/06 08:20:50;;;;;;;76.03;39.90;;;;;;;;;;6270106;22;20141;-52
2023/12/06 08:23:16;;;;;;;77.47;37.27;;;;;;;;;;6262208;22;20128;-50
2023/12/06 08:25:42;;;;;;;72.17;37.53;;;;;;;;;;6268681;22;20164;-51
2023/12/06 08:28:08;;;;;;;82.83;38.67;;;;;;;;;;6268431;22;20206;-55
2023/12/06 08:30:34;;;;;;;74.30;36.33;;;;;;;;;;6269989;22;20132;-55
2023/12/06 08:33:00;;;;;;;74.57;38.20;;;;;;;;;;6270111;22;20612;-54
2023/12/06 08:35:27;;;;;;;74.53;37.23;;;;;;;;;;6275712;22;20187;-54
2023/12/06 08:37:53;;;;;;;84.13;38.57;;;;;;;;;;6275838;22;20512;-55
2023/12/06 08:40:19;;;;;;;75.80;40.40;;;;;;;;;;6274082;22;20564;-54
2023/12/06 08:42:45;;;;;;;76.27;37.83;;;;;;;;;;6301377;22;20691;-53
2023/12/06 08:45:13;;;;;;;77.43;36.37;;;;;;;;;;6302024;22;20166;-54
2023/12/06 08:47:42;;;;;;;73.37;37.00;;;;;;;;;;6274694;22;20152;-53
2023/12/06 08:50:09;;;;;;;77.70;38.70;;;;;;;;;;6273228;22;20695;-51
2023/12/06 08:52:35;;;;;;;80.93;38.33;;;;;;;;;;6300037;22;20139;-56
2023/12/06 08:55:03;;;;;;;89.57;39.93;;;;;;;;;;6300276;22;20166;-50
2023/12/06 08:57:30;;;;;;;85.13;37.57;;;;;;;;;;6273161;22;20147;-54
2023/12/06 08:59:56;;;;;;;82.70;39.23;;;;;;;;;;6274097;22;20143;-55
2023/12/06 09:02:22;;;;;;;74.97;38.30;;;;;;;;;;6275285;22;20158;-51
2023/12/06 09:04:50;;;;;;;75.13;36.97;;;;;;;;;;6276843;22;20167;-52
2023/12/06 09:07:16;;;;;;;73.60;38.33;;;;;;;;;;6277492;22;20540;-51
2023/12/06 09:09:45;;;;;;;83.03;39.80;;;;;;;;;;6276111;22;20136;-52
2023/12/06 09:12:11;;;;;;;79.50;39.50;;;;;;;;;;6279386;22;20600;-50
2023/12/06 09:14:37;;;;;;;77.27;39.00;;;;;;;;;;6276149;22;20139;-49
2023/12/06 09:17:03;;;;;;;74.00;38.33;;;;;;;;;;6277575;22;20414;-54
2023/12/06 09:19:30;;;;;;;83.03;38.93;;;;;;;;;;6276487;22;20139;-49
2023/12/06 09:21:56;;;;;;;81.13;39.77;;;;;;;;;;6274901;22;20139;-50
2023/12/06 09:24:22;;;;;;;69.17;35.73;;;;;;;;;;6300118;22;20198;-52
2023/12/06 09:26:48;;;;;;;78.70;40.03;;;;;;;;;;6275101;22;20167;-52
2023/12/06 09:29:14;;;;;;;74.13;36.37;;;;;;;;;;6302829;22;20124;-54
2023/12/06 09:31:40;;;;;;;65.43;34.63;;;;;;;;;;6276846;22;20162;-55
2023/12/06 09:34:09;;;;;;;72.43;38.03;;;;;;;;;;6278074;22;20514;-54
2023/12/06 09:36:35;;;;;;;78.43;37.57;;;;;;;;;;6277821;22;20191;-51
2023/12/06 09:39:01;;;;;;;73.63;37.83;;;;;;;;;;6278792;22;20146;-53
2023/12/06 09:41:28;;;;;;;72.17;37.87;;;;;;;;;;6278624;22;20166;-51
2023/12/06 09:43:55;;;;;;;73.57;37.77;;;;;;;;;;6303968;22;20127;-50
2023/12/06 09:46:21;;;;;;;73.20;36.80;;;;;;;;;;6305347;22;20175;-55
2023/12/06 09:48:50;;;;;;;82.50;38.83;;;;;;;;;;6278662;22;20189;-53
2023/12/06 09:51:17;;;;;;;75.37;40.10;;;;;;;;;;6278577;22;20136;-51
2023/12/06 09:53:44;;;;;;;66.97;36.50;;;;;;;;;;6277234;22;20174;-52
2023/12/06 09:56:11;;;;;;;73.40;36.93;;;;;;;;;;6276621;22;20143;-55
2023/12/06 09:58:37;;;;;;;69.00;36.73;;;;;;;;;;6277917;22;20213;-53
2023/12/06 10:01:04;;;;;;;73.33;36.70;;;;;;;;;;6276686;22;20159;-56
2023/12/06 10:03:29;;;;;;;73.97;38.53;;;;;;;;;;6275445;22;20138;-49
2023/12/06 10:05:56;;;;;;;68.60;36.93;;;;;;;;;;6275214;22;20186;-55
2023/12/06 10:08:22;;;;;;;70.20;37.50;;;;;;;;;;6274669;22;20162;-54
2023/12/06 10:10:48;;;;;;;74.67;37.23;;;;;;;;;;6300495;22;20127;-54
2023/12/06 10:13:15;;;;;;;72.00;38.67;;;;;;;;;;6276165;22;20473;-53
2023/12/06 10:15:42;;;;;;;77.70;37.27;;;;;;;;;;6301663;22;20442;-54
2023/12/06 10:18:10;;;;;;;74.00;36.40;;;;;;;;;;6275759;22;20149;-51
2023/12/06 10:20:36;;;;;;;69.07;35.30;;;;;;;;;;6276636;22;20163;-55
2023/12/06 10:23:02;;;;;;;71.87;36.63;;;;;;;;;;6278113;22;20399;-50
2023/12/06 10:25:37;;;;;;;70.67;35.17;;;;;;;;;;6304430;22;20163;-50
2023/12/06 10:28:03;;;;;;;81.23;39.43;;;;;;;;;;6278984;22;20463;-58
2023/12/06 10:30:29;;;;;;;76.83;37.97;;;;;;;;;;6305544;22;20124;-59
2023/12/06 10:32:57;;;;;;;78.47;38.63;;;;;;;;;;6279143;22;20269;-58
2023/12/06 10:35:25;;;;;;;78.93;39.53;;;;;;;;;;6278501;22;21033;-58
2023/12/06 10:37:53;;;;;;;71.67;36.57;;;;;;;;;;6306183;22;20135;-58
2023/12/06 10:40:23;;;;;;;70.80;35.93;;;;;;;;;;6304271;22;20166;-55
2023/12/06 10:42:53;;;;;;;78.53;39.47;;;;;;;;;;6303969;22;20132;-54
2023/12/06 10:45:20;;;;;;;69.27;36.03;;;;;;;;;;6276710;22;20168;-51
2023/12/06 10:47:48;;;;;;;70.70;37.90;;;;;;;;;;6276307;22;20161;-52
2023/12/06 10:50:14;;;;;;;74.23;38.17;;;;;;;;;;6302236;22;20217;-54
2023/12/06 10:52:42;;;;;;;70.27;36.30;;;;;;;;;;6277236;22;20135;-54
2023/12/06 10:55:10;;;;;;;82.47;39.40;;;;;;;;;;6279313;22;20441;-54
2023/12/06 10:57:37;;;;;;;69.90;36.43;;;;;;;;;;6277645;22;20712;-53
2023/12/06 11:00:05;;;;;;;74.63;37.67;;;;;;;;;;6277350;22;20148;-53
2023/12/06 11:02:33;;;;;;;76.17;38.00;;;;;;;;;;6277946;22;20158;-51
2023/12/06 11:05:05;;;;;;;79.77;38.00;;;;;;;;;;6277965;22;20258;-54
2023/12/06 11:07:49;;;;;;;72.87;37.87;;;;;;;;;;6303516;22;20120;-53
2023/12/06 11:10:27;;;;;;;76.47;37.27;;;;;;;;;;6276545;22;20135;-53
2023/12/06 11:13:15;;;;;;;84.70;40.10;;;;;;;;;;6277222;22;20166;-55
2023/12/06 11:16:18;;;;;;;74.77;37.73;;;;;;;;;;6277323;22;20131;-51
2023/12/06 11:18:45;;;;;;;78.07;38.77;;;;;;;;;;6123269;23;20580;-52
2023/12/06 11:21:15;;;;;;;78.97;38.77;;;;;;;;;;6124174;23;20151;-54
2023/12/06 11:23:42;;;;;;;77.73;38.40;;;;;;;;;;6122240;23;20175;-50
2023/12/06 11:26:09;;;;;;;76.80;36.03;;;;;;;;;;6119733;23;20182;-55
2023/12/06 11:28:40;;;;;;;85.63;40.73;;;;;;;;;;6119826;23;20813;-53
2023/12/06 11:31:08;;;;;;;75.50;36.40;;;;;;;;;;6119426;23;20143;-54
2023/12/06 11:33:34;;;;;;;83.10;40.67;;;;;;;;;;6209818;22;20533;-53
2023/12/06 11:36:02;;;;;;;83.47;41.07;;;;;;;;;;6271434;22;20222;-54
2023/12/06 11:38:36;;;;;;;76.10;36.20;;;;;;;;;;6270385;22;20166;-53
2023/12/06 11:41:04;;;;;;;79.33;37.93;;;;;;;;;;6271725;22;20215;-51
2023/12/06 11:43:40;;;;;;;77.00;39.03;;;;;;;;;;6272913;22;20144;-56
2023/12/06 11:46:10;;;;;;;81.90;40.70;;;;;;;;;;6274015;22;20281;-49
2023/12/06 11:48:39;;;;;;;83.03;37.57;;;;;;;;;;6274513;22;20139;-50
2023/12/06 11:51:08;;;;;;;78.23;37.23;;;;;;;;;;6274510;22;20146;-54
2023/12/06 11:53:37;;;;;;;86.27;38.70;;;;;;;;;;6302011;22;20150;-50
2023/12/06 11:56:06;;;;;;;78.50;39.00;;;;;;;;;;6302596;22;20142;-54
2023/12/06 11:58:34;;;;;;;87.77;39.73;;;;;;;;;;6276272;22;20144;-56
2023/12/06 12:01:05;;;;;;;76.83;38.17;;;;;;;;;;6275856;22;20777;-52
2023/12/06 12:03:33;;;;;;;79.77;37.97;;;;;;;;;;6275304;22;20158;-54
2023/12/06 12:06:01;;;;;;;78.60;38.83;;;;;;;;;;6249645;22;20175;-54
2023/12/06 12:08:31;;;;;;;85.17;40.47;;;;;;;;;;6275522;22;20222;-54
2023/12/06 12:10:58;;;;;;;87.43;40.53;;;;;;;;;;6274981;22;20155;-54
2023/12/06 12:13:26;;;;;;;86.97;40.70;;;;;;;;;;6275060;22;20226;-53
2023/12/06 12:15:58;;;;;;;87.13;39.70;;;;;;;;;;6274818;22;20154;-51
2023/12/06 12:18:26;;;;;;;90.07;42.70;;;;;;;;;;6250764;22;20147;-52
2023/12/06 12:21:06;;;;;;;92.20;41.17;;;;;;;;;;6248490;22;20230;-49
2023/12/06 12:23:33;;;;;;;89.93;41.57;;;;;;;;;;6275726;22;20154;-55
2023/12/06 12:25:59;;;;;;;83.07;40.43;;;;;;;;;;6274842;22;20163;-55
2023/12/06 12:28:25;;;;;;;88.67;41.93;;;;;;;;;;6275889;22;20662;-55
2023/12/06 12:30:52;;;;;;;94.17;40.53;;;;;;;;;;6301480;22;20246;-55
2023/12/06 12:33:18;;;;;;;91.10;40.70;;;;;;;;;;6301960;22;20128;-57
2023/12/06 12:35:47;;;;;;;89.77;40.83;;;;;;;;;;6270675;22;20192;-53
2023/12/06 12:38:13;;;;;;;93.67;40.77;;;;;;;;;;6272244;22;20735;-56
2023/12/06 12:40:41;;;;;;;94.23;41.47;;;;;;;;;;6271065;22;20140;-56
2023/12/06 12:43:07;;;;;;;91.53;40.10;;;;;;;;;;6269454;22;20140;-53
2023/12/06 12:45:33;;;;;;;91.80;40.03;;;;;;;;;;6268973;22;20310;-56
2023/12/06 12:48:00;;;;;;;96.77;43.03;;;;;;;;;;6269519;22;20136;-54
2023/12/06 12:50:27;;;;;;;97.83;44.53;;;;;;;;;;6266473;22;20598;-55
2023/12/06 12:52:56;;;;;;;85.50;40.77;;;;;;;;;;6267697;22;20137;-55
2023/12/06 12:55:25;;;;;;;93.37;42.90;;;;;;;;;;6268168;22;20150;-56
2023/12/06 12:57:52;;;;;;;96.80;40.67;;;;;;;;;;6269207;22;20446;-54
2023/12/06 13:00:26;;;;;;;88.93;40.83;;;;;;;;;;6272769;22;20172;-56
2023/12/06 13:02:57;;;;;;;94.33;41.17;;;;;;;;;;6271540;22;20144;-55
2023/12/06 13:05:25;;;;;;;96.67;41.67;;;;;;;;;;6271499;22;20195;-54
2023/12/06 13:07:52;;;;;;;91.60;41.10;;;;;;;;;;6270156;22;20144;-52
2023/12/06 13:10:21;;;;;;;102.03;43.23;;;;;;;;;;6269773;22;20147;-54
2023/12/06 13:12:47;;;;;;;91.43;40.87;;;;;;;;;;6270815;22;20483;-56
2023/12/06 13:15:13;;;;;;;92.10;41.40;;;;;;;;;;6269327;22;20666;-55
2023/12/06 13:17:39;;;;;;;92.50;41.50;;;;;;;;;;6268588;22;20140;-53
2023/12/06 13:20:07;;;;;;;86.73;39.63;;;;;;;;;;6268644;22;20219;-54
2023/12/06 13:22:35;;;;;;;75.90;35.80;;;;;;;;;;6268874;22;20152;-61
2023/12/06 13:25:06;;;;;;;84.37;38.60;;;;;;;;;;6267334;22;20514;-57
2023/12/06 13:27:32;;;;;;;89.37;38.37;;;;;;;;;;6267791;22;20133;-54
2023/12/06 13:29:58;;;;;;;90.33;38.60;;;;;;;;;;6267939;22;20136;-56
2023/12/06 13:32:25;;;;;;;77.30;35.67;;;;;;;;;;6268527;22;20136;-55
2023/12/06 13:34:52;;;;;;;86.40;39.27;;;;;;;;;;6269114;22;20156;-53
2023/12/06 13:37:18;;;;;;;81.30;38.30;;;;;;;;;;6268604;22;20208;-54
2023/12/06 13:39:45;;;;;;;101.13;40.10;;;;;;;;;;6270233;22;20150;-53
2023/12/06 13:42:14;;;;;;;84.00;36.93;;;;;;;;;;6270764;22;20139;-56
2023/12/06 13:44:42;;;;;;;76.43;36.27;;;;;;;;;;6271073;22;20152;-56
2023/12/06 13:47:10;;;;;;;95.73;39.63;;;;;;;;;;6269820;22;20140;-53
2023/12/06 13:49:36;;;;;;;88.07;38.27;;;;;;;;;;6269711;22;20137;-54
2023/12/06 13:52:03;;;;;;;89.33;39.83;;;;;;;;;;6243704;22;20152;-57
2023/12/06 13:54:29;;;;;;;87.77;36.87;;;;;;;;;;6268668;22;20156;-54
2023/12/06 13:56:55;;;;;;;94.80;39.83;;;;;;;;;;6270261;22;20144;-54
2023/12/06 13:59:23;;;;;;;93.53;39.70;;;;;;;;;;6268897;22;20274;-54
2023/12/06 14:01:50;;;;;;;88.17;38.10;;;;;;;;;;6268055;22;20146;-53
2023/12/06 14:04:21;;;;;;;90.20;39.17;;;;;;;;;;6268683;22;20132;-54
2023/12/06 14:06:49;;;;;;;86.70;37.97;;;;;;;;;;6270037;22;20764;-52
2023/12/06 14:09:16;;;;;;;84.30;36.77;;;;;;;;;;6267423;22;20124;-57
2023/12/06 14:11:44;;;;;;;94.67;41.23;;;;;;;;;;6268042;22;20132;-54
2023/12/06 14:14:10;;;;;;;91.87;37.73;;;;;;;;;;6269278;22;20139;-56
2023/12/06 14:16:36;;;;;;;84.03;38.13;;;;;;;;;;6269193;22;20223;-54
2023/12/06 14:19:02;;;;;;;90.47;39.90;;;;;;;;;;6267026;22;20136;-55